Liberty, IN

11:36 PM EDT on April 17, 2015 (GMT -0400)
APRSWXNET | | Change Station
CLOSE
Current Station
Personal Weather Station
Location: Liberty, IN
Elevation: 977 ft
Nearby Weather Stations

Elev 977 ft 39.60 °N, 84.90 °W | Updated 31 minutes ago

Partly Cloudy
Partly Cloudy
64 °F
Feels Like 64 °F
N
1
Wind Variable Wind from ESE
Gusts 4.0 mph

Today
High -- | Low -- °F
--% Chance of Precip.
Yesterday
High -- | Low -- °F
Precip. -- in
6:59 AM 8:19 PM
Waning Crescent, 1% visible
Pressure 30.05 in
Visibility 10.0 miles
Clouds Clear
Dew Point 44 °F
Humidity 49%
Rainfall in
Snow Depth Not available.
UV 0 out of 12
Pollen 11.20 out of 12
Air Quality Not available.
Flu Activity Local Activity
METAR KHAO 180253Z AUTO 00000KT 10SM CLR 14/12 A3005 RMK AO2 SLP175 T01390117 51012

More Conditions Fewer Conditions

Pressure 30.05 in
Visibility 10.0 miles
Clouds Clear
Dew Point 44 °F
Humidity 49%
Rainfall in
Snow Depth Not available.
UV 0 out of 12
Pollen 11.20 out of 12
Air Quality Not available.
Flu Activity Local Activity
METAR KHAO 180253Z AUTO 00000KT 10SM CLR 14/12 A3005 RMK AO2 SLP175 T01390117 51012

More Conditions Fewer Conditions

10-Day Weather Forecast

Almanac

Astronomy

Apr. 17, 2015 Rise Set
Actual Time
Civil Twilight
Nautical Twilight
Astronomical Twilight
Moon
Length of Visible Light
Length of Day
Tomorrow will be .
, % of the Moon is Illuminated

Today's Extremes

State Highs State Lows

Community

WunderPhotos

Upload Photos

1,814,316 photos uploaded!

WunderBlogs® & News

Nearby

Air Quality

  Air Quality AQ Index Pollutant
Not available.

Snow Depth

Station Depth Elevation

Earthquake Activity

City Distance Mag. Time & Date
Minimum magnitude displayed is 2.5.

Coastal Water Temperatures

Place Temperature

Stations

Nearby Weather Stations

Station Location Temp. Windchill Dew Point Humidity Wind Precip. Elev Updated Type